sensor_id;sensor_type;location;lat;lon;timestamp;P1;durP1;ratioP1;P2;durP2;ratioP2
59880;SDS011;45751;51.380;10.326;2022-09-29T00:00:35;10.00;;;4.25;;
59880;SDS011;45751;51.380;10.326;2022-09-29T00:03:03;11.00;;;5.22;;
59880;SDS011;45751;51.380;10.326;2022-09-29T00:05:30;12.82;;;4.97;;
59880;SDS011;45751;51.380;10.326;2022-09-29T00:07:57;10.55;;;4.22;;
59880;SDS011;45751;51.380;10.326;2022-09-29T00:10:24;9.98;;;4.00;;
59880;SDS011;45751;51.380;10.326;2022-09-29T00:12:52;11.75;;;4.70;;
59880;SDS011;45751;51.380;10.326;2022-09-29T00:15:19;10.18;;;4.00;;
59880;SDS011;45751;51.380;10.326;2022-09-29T00:17:45;11.77;;;4.70;;
59880;SDS011;45751;51.380;10.326;2022-09-29T00:20:32;13.40;;;5.03;;
59880;SDS011;45751;51.380;10.326;2022-09-29T00:22:59;11.02;;;4.10;;
59880;SDS011;45751;51.380;10.326;2022-09-29T00:25:26;10.95;;;4.45;;
59880;SDS011;45751;51.380;10.326;2022-09-29T00:27:53;9.30;;;3.33;;
59880;SDS011;45751;51.380;10.326;2022-09-29T00:30:20;11.63;;;4.78;;
59880;SDS011;45751;51.380;10.326;2022-09-29T00:32:47;11.15;;;3.78;;
59880;SDS011;45751;51.380;10.326;2022-09-29T00:35:13;11.18;;;3.55;;
59880;SDS011;45751;51.380;10.326;2022-09-29T00:37:43;10.35;;;4.35;;
59880;SDS011;45751;51.380;10.326;2022-09-29T00:40:10;18.13;;;4.88;;
59880;SDS011;45751;51.380;10.326;2022-09-29T00:42:37;11.23;;;4.25;;
59880;SDS011;45751;51.380;10.326;2022-09-29T00:45:25;12.85;;;5.03;;
59880;SDS011;45751;51.380;10.326;2022-09-29T00:47:58;11.73;;;4.80;;
59880;SDS011;45751;51.380;10.326;2022-09-29T00:50:36;8.93;;;3.78;;
59880;SDS011;45751;51.380;10.326;2022-09-29T00:53:08;10.35;;;4.75;;
59880;SDS011;45751;51.380;10.326;2022-09-29T00:55:48;11.05;;;4.30;;
59880;SDS011;45751;51.380;10.326;2022-09-29T00:58:31;10.95;;;4.43;;
59880;SDS011;45751;51.380;10.326;2022-09-29T01:03:32;8.98;;;3.75;;
59880;SDS011;45751;51.380;10.326;2022-09-29T01:06:07;11.85;;;4.63;;
59880;SDS011;45751;51.380;10.326;2022-09-29T01:08:49;10.10;;;4.10;;
59880;SDS011;45751;51.380;10.326;2022-09-29T01:11:26;11.48;;;4.68;;
59880;SDS011;45751;51.380;10.326;2022-09-29T01:13:55;14.27;;;5.18;;
59880;SDS011;45751;51.380;10.326;2022-09-29T01:16:29;12.68;;;4.50;;
59880;SDS011;45751;51.380;10.326;2022-09-29T01:18:57;9.25;;;4.55;;
59880;SDS011;45751;51.380;10.326;2022-09-29T01:29:14;10.65;;;4.97;;
59880;SDS011;45751;51.380;10.326;2022-09-29T01:32:04;10.40;;;3.45;;
59880;SDS011;45751;51.380;10.326;2022-09-29T01:34:59;9.93;;;4.07;;
59880;SDS011;45751;51.380;10.326;2022-09-29T01:40:15;11.80;;;5.50;;
59880;SDS011;45751;51.380;10.326;2022-09-29T01:45:32;12.25;;;5.55;;
59880;SDS011;45751;51.380;10.326;2022-09-29T01:48:10;10.70;;;4.82;;
59880;SDS011;45751;51.380;10.326;2022-09-29T01:50:43;13.82;;;4.72;;
59880;SDS011;45751;51.380;10.326;2022-09-29T01:53:14;10.38;;;4.70;;
59880;SDS011;45751;51.380;10.326;2022-09-29T01:55:49;9.57;;;3.50;;
59880;SDS011;45751;51.380;10.326;2022-09-29T01:58:20;9.45;;;3.80;;
59880;SDS011;45751;51.380;10.326;2022-09-29T02:00:54;13.15;;;4.95;;
59880;SDS011;45751;51.380;10.326;2022-09-29T02:08:30;12.40;;;4.43;;
59880;SDS011;45751;51.380;10.326;2022-09-29T02:11:07;11.20;;;4.40;;
59880;SDS011;45751;51.380;10.326;2022-09-29T02:13:42;12.35;;;5.25;;
59880;SDS011;45751;51.380;10.326;2022-09-29T02:16:21;11.70;;;4.45;;
59880;SDS011;45751;51.380;10.326;2022-09-29T02:19:00;12.98;;;5.55;;
59880;SDS011;45751;51.380;10.326;2022-09-29T02:21:31;13.00;;;4.57;;
59880;SDS011;45751;51.380;10.326;2022-09-29T02:23:59;10.30;;;4.35;;
59880;SDS011;45751;51.380;10.326;2022-09-29T02:26:27;10.00;;;4.93;;
59880;SDS011;45751;51.380;10.326;2022-09-29T02:29:02;11.00;;;4.97;;
59880;SDS011;45751;51.380;10.326;2022-09-29T02:31:30;11.02;;;3.65;;
59880;SDS011;45751;51.380;10.326;2022-09-29T02:34:01;12.82;;;4.30;;
59880;SDS011;45751;51.380;10.326;2022-09-29T02:41:48;8.95;;;2.97;;
59880;SDS011;45751;51.380;10.326;2022-09-29T02:46:55;9.43;;;3.75;;
59880;SDS011;45751;51.380;10.326;2022-09-29T02:52:44;11.73;;;4.63;;
59880;SDS011;45751;51.380;10.326;2022-09-29T02:58:02;12.00;;;4.57;;
59880;SDS011;45751;51.380;10.326;2022-09-29T03:00:30;8.63;;;3.90;;
59880;SDS011;45751;51.380;10.326;2022-09-29T03:02:57;12.73;;;5.45;;
59880;SDS011;45751;51.380;10.326;2022-09-29T03:05:24;10.30;;;4.07;;
59880;SDS011;45751;51.380;10.326;2022-09-29T03:07:51;11.57;;;3.80;;
59880;SDS011;45751;51.380;10.326;2022-09-29T03:10:18;13.63;;;4.88;;
59880;SDS011;45751;51.380;10.326;2022-09-29T03:12:44;14.23;;;5.53;;
59880;SDS011;45751;51.380;10.326;2022-09-29T03:15:14;12.07;;;4.72;;
59880;SDS011;45751;51.380;10.326;2022-09-29T03:17:42;13.07;;;4.72;;
59880;SDS011;45751;51.380;10.326;2022-09-29T03:20:09;11.35;;;4.45;;
59880;SDS011;45751;51.380;10.326;2022-09-29T03:22:36;12.82;;;4.38;;
59880;SDS011;45751;51.380;10.326;2022-09-29T03:25:03;10.63;;;4.78;;
59880;SDS011;45751;51.380;10.326;2022-09-29T03:27:32;9.07;;;3.80;;
59880;SDS011;45751;51.380;10.326;2022-09-29T03:29:59;10.30;;;4.32;;
59880;SDS011;45751;51.380;10.326;2022-09-29T03:32:26;9.05;;;4.03;;
59880;SDS011;45751;51.380;10.326;2022-09-29T03:34:52;10.00;;;4.00;;
59880;SDS011;45751;51.380;10.326;2022-09-29T03:37:19;12.10;;;3.97;;
59880;SDS011;45751;51.380;10.326;2022-09-29T03:39:46;12.48;;;4.90;;
59880;SDS011;45751;51.380;10.326;2022-09-29T03:42:13;12.57;;;3.67;;
59880;SDS011;45751;51.380;10.326;2022-09-29T03:44:39;8.02;;;3.55;;
59880;SDS011;45751;51.380;10.326;2022-09-29T03:47:06;10.40;;;3.13;;
59880;SDS011;45751;51.380;10.326;2022-09-29T03:49:33;8.88;;;3.38;;
59880;SDS011;45751;51.380;10.326;2022-09-29T03:52:00;8.93;;;3.25;;
59880;SDS011;45751;51.380;10.326;2022-09-29T03:54:27;8.30;;;3.35;;
59880;SDS011;45751;51.380;10.326;2022-09-29T03:56:54;9.13;;;2.97;;
59880;SDS011;45751;51.380;10.326;2022-09-29T03:59:21;11.52;;;2.78;;
59880;SDS011;45751;51.380;10.326;2022-09-29T04:01:47;9.07;;;2.95;;
59880;SDS011;45751;51.380;10.326;2022-09-29T04:04:15;8.75;;;2.78;;
59880;SDS011;45751;51.380;10.326;2022-09-29T04:06:41;8.43;;;2.92;;
59880;SDS011;45751;51.380;10.326;2022-09-29T04:09:08;6.90;;;2.67;;
59880;SDS011;45751;51.380;10.326;2022-09-29T04:11:35;9.45;;;3.67;;
59880;SDS011;45751;51.380;10.326;2022-09-29T04:14:02;8.85;;;3.10;;
59880;SDS011;45751;51.380;10.326;2022-09-29T04:16:29;8.05;;;2.85;;
59880;SDS011;45751;51.380;10.326;2022-09-29T04:18:56;8.85;;;2.72;;
59880;SDS011;45751;51.380;10.326;2022-09-29T04:21:22;8.15;;;2.85;;
59880;SDS011;45751;51.380;10.326;2022-09-29T04:23:49;8.23;;;3.35;;
59880;SDS011;45751;51.380;10.326;2022-09-29T04:26:16;8.10;;;3.00;;
59880;SDS011;45751;51.380;10.326;2022-09-29T04:28:45;8.20;;;3.20;;
59880;SDS011;45751;51.380;10.326;2022-09-29T04:31:12;9.15;;;3.47;;
59880;SDS011;45751;51.380;10.326;2022-09-29T04:33:40;10.02;;;3.08;;
59880;SDS011;45751;51.380;10.326;2022-09-29T04:36:07;11.48;;;3.50;;
59880;SDS011;45751;51.380;10.326;2022-09-29T04:38:33;9.48;;;3.30;;
59880;SDS011;45751;51.380;10.326;2022-09-29T04:41:00;9.68;;;3.05;;
59880;SDS011;45751;51.380;10.326;2022-09-29T04:43:27;10.00;;;4.25;;
59880;SDS011;45751;51.380;10.326;2022-09-29T04:46:00;8.30;;;2.75;;
59880;SDS011;45751;51.380;10.326;2022-09-29T04:48:30;6.95;;;1.77;;
59880;SDS011;45751;51.380;10.326;2022-09-29T04:51:01;9.88;;;4.43;;
59880;SDS011;45751;51.380;10.326;2022-09-29T04:53:28;8.93;;;2.92;;
59880;SDS011;45751;51.380;10.326;2022-09-29T04:55:55;9.40;;;3.38;;
59880;SDS011;45751;51.380;10.326;2022-09-29T04:58:21;8.93;;;3.17;;
59880;SDS011;45751;51.380;10.326;2022-09-29T05:00:48;8.90;;;3.47;;
59880;SDS011;45751;51.380;10.326;2022-09-29T05:03:15;9.75;;;3.60;;
59880;SDS011;45751;51.380;10.326;2022-09-29T05:05:42;7.93;;;2.72;;
59880;SDS011;45751;51.380;10.326;2022-09-29T05:08:08;8.23;;;2.65;;
59880;SDS011;45751;51.380;10.326;2022-09-29T05:10:35;6.90;;;2.90;;
59880;SDS011;45751;51.380;10.326;2022-09-29T05:13:02;9.43;;;3.47;;
59880;SDS011;45751;51.380;10.326;2022-09-29T05:15:28;8.80;;;3.25;;
59880;SDS011;45751;51.380;10.326;2022-09-29T05:17:55;7.85;;;2.83;;
59880;SDS011;45751;51.380;10.326;2022-09-29T05:20:25;7.55;;;3.28;;
59880;SDS011;45751;51.380;10.326;2022-09-29T05:23:01;9.30;;;3.63;;
59880;SDS011;45751;51.380;10.326;2022-09-29T05:25:33;7.90;;;2.58;;
59880;SDS011;45751;51.380;10.326;2022-09-29T05:28:01;6.63;;;3.55;;
59880;SDS011;45751;51.380;10.326;2022-09-29T05:30:28;9.85;;;3.67;;
59880;SDS011;45751;51.380;10.326;2022-09-29T05:32:55;7.75;;;3.03;;
59880;SDS011;45751;51.380;10.326;2022-09-29T05:35:24;8.93;;;3.60;;
59880;SDS011;45751;51.380;10.326;2022-09-29T05:37:51;8.20;;;3.30;;
59880;SDS011;45751;51.380;10.326;2022-09-29T05:40:18;8.80;;;3.58;;
59880;SDS011;45751;51.380;10.326;2022-09-29T05:42:45;8.82;;;3.83;;
59880;SDS011;45751;51.380;10.326;2022-09-29T05:45:11;11.20;;;4.40;;
59880;SDS011;45751;51.380;10.326;2022-09-29T05:47:41;13.02;;;5.00;;
59880;SDS011;45751;51.380;10.326;2022-09-29T05:50:09;10.93;;;4.90;;
59880;SDS011;45751;51.380;10.326;2022-09-29T05:52:37;9.70;;;4.22;;
59880;SDS011;45751;51.380;10.326;2022-09-29T05:55:05;12.35;;;4.50;;
59880;SDS011;45751;51.380;10.326;2022-09-29T05:57:35;9.35;;;3.88;;
59880;SDS011;45751;51.380;10.326;2022-09-29T06:00:02;8.77;;;2.95;;
59880;SDS011;45751;51.380;10.326;2022-09-29T06:02:36;7.38;;;3.17;;
59880;SDS011;45751;51.380;10.326;2022-09-29T06:05:03;9.43;;;3.42;;
59880;SDS011;45751;51.380;10.326;2022-09-29T06:07:30;8.50;;;3.40;;
59880;SDS011;45751;51.380;10.326;2022-09-29T06:09:57;12.40;;;4.45;;
59880;SDS011;45751;51.380;10.326;2022-09-29T06:12:24;11.13;;;3.97;;
59880;SDS011;45751;51.380;10.326;2022-09-29T06:14:51;11.48;;;4.35;;
59880;SDS011;45751;51.380;10.326;2022-09-29T06:17:17;8.20;;;3.20;;
59880;SDS011;45751;51.380;10.326;2022-09-29T06:19:44;15.23;;;4.35;;
59880;SDS011;45751;51.380;10.326;2022-09-29T06:22:11;9.25;;;3.28;;
59880;SDS011;45751;51.380;10.326;2022-09-29T06:24:37;10.90;;;4.60;;
59880;SDS011;45751;51.380;10.326;2022-09-29T06:27:04;9.73;;;3.58;;
59880;SDS011;45751;51.380;10.326;2022-09-29T06:29:31;9.43;;;3.85;;
59880;SDS011;45751;51.380;10.326;2022-09-29T06:31:58;10.57;;;4.63;;
59880;SDS011;45751;51.380;10.326;2022-09-29T06:34:24;9.95;;;3.50;;
59880;SDS011;45751;51.380;10.326;2022-09-29T06:36:51;8.45;;;3.42;;
59880;SDS011;45751;51.380;10.326;2022-09-29T06:39:37;9.77;;;3.83;;
59880;SDS011;45751;51.380;10.326;2022-09-29T06:42:04;9.65;;;3.92;;
59880;SDS011;45751;51.380;10.326;2022-09-29T06:44:31;8.38;;;3.55;;
59880;SDS011;45751;51.380;10.326;2022-09-29T06:46:58;9.73;;;4.05;;
59880;SDS011;45751;51.380;10.326;2022-09-29T06:49:25;13.07;;;4.40;;
59880;SDS011;45751;51.380;10.326;2022-09-29T06:51:51;9.65;;;4.38;;
59880;SDS011;45751;51.380;10.326;2022-09-29T06:54:19;13.30;;;3.85;;
59880;SDS011;45751;51.380;10.326;2022-09-29T06:56:50;11.95;;;4.18;;
59880;SDS011;45751;51.380;10.326;2022-09-29T06:59:18;10.02;;;3.95;;
59880;SDS011;45751;51.380;10.326;2022-09-29T07:01:45;10.73;;;4.20;;
59880;SDS011;45751;51.380;10.326;2022-09-29T07:06:45;9.15;;;4.25;;
59880;SDS011;45751;51.380;10.326;2022-09-29T07:09:12;15.55;;;3.97;;
59880;SDS011;45751;51.380;10.326;2022-09-29T07:11:46;12.70;;;4.53;;
59880;SDS011;45751;51.380;10.326;2022-09-29T07:14:14;10.95;;;4.50;;
59880;SDS011;45751;51.380;10.326;2022-09-29T07:16:42;11.70;;;4.85;;
59880;SDS011;45751;51.380;10.326;2022-09-29T07:19:09;11.60;;;5.32;;
59880;SDS011;45751;51.380;10.326;2022-09-29T07:21:36;12.93;;;5.75;;
59880;SDS011;45751;51.380;10.326;2022-09-29T07:24:03;11.55;;;4.93;;
59880;SDS011;45751;51.380;10.326;2022-09-29T07:26:30;12.23;;;5.80;;
59880;SDS011;45751;51.380;10.326;2022-09-29T07:28:56;12.05;;;4.82;;
59880;SDS011;45751;51.380;10.326;2022-09-29T07:31:23;12.82;;;5.20;;
59880;SDS011;45751;51.380;10.326;2022-09-29T07:33:50;12.93;;;5.65;;
59880;SDS011;45751;51.380;10.326;2022-09-29T07:36:18;10.50;;;4.60;;
59880;SDS011;45751;51.380;10.326;2022-09-29T07:38:49;12.88;;;5.47;;
59880;SDS011;45751;51.380;10.326;2022-09-29T07:41:18;15.20;;;6.35;;
59880;SDS011;45751;51.380;10.326;2022-09-29T07:43:46;13.68;;;6.15;;
59880;SDS011;45751;51.380;10.326;2022-09-29T07:46:13;16.05;;;5.85;;
59880;SDS011;45751;51.380;10.326;2022-09-29T07:48:40;12.45;;;5.43;;
59880;SDS011;45751;51.380;10.326;2022-09-29T07:51:09;12.52;;;5.30;;
59880;SDS011;45751;51.380;10.326;2022-09-29T07:53:39;18.80;;;6.82;;
59880;SDS011;45751;51.380;10.326;2022-09-29T07:56:10;18.63;;;8.55;;
59880;SDS011;45751;51.380;10.326;2022-09-29T07:58:43;11.88;;;6.28;;
59880;SDS011;45751;51.380;10.326;2022-09-29T08:01:12;18.58;;;7.32;;
59880;SDS011;45751;51.380;10.326;2022-09-29T08:03:44;12.32;;;5.20;;
59880;SDS011;45751;51.380;10.326;2022-09-29T08:06:15;17.73;;;6.88;;
59880;SDS011;45751;51.380;10.326;2022-09-29T08:08:42;15.23;;;5.22;;
59880;SDS011;45751;51.380;10.326;2022-09-29T08:11:27;12.75;;;4.95;;
59880;SDS011;45751;51.380;10.326;2022-09-29T08:13:57;12.55;;;5.28;;
59880;SDS011;45751;51.380;10.326;2022-09-29T08:16:25;12.90;;;5.40;;
59880;SDS011;45751;51.380;10.326;2022-09-29T08:18:52;15.18;;;6.00;;
59880;SDS011;45751;51.380;10.326;2022-09-29T08:21:18;15.10;;;6.28;;
59880;SDS011;45751;51.380;10.326;2022-09-29T08:23:45;13.18;;;5.78;;
59880;SDS011;45751;51.380;10.326;2022-09-29T08:26:16;14.82;;;5.60;;
59880;SDS011;45751;51.380;10.326;2022-09-29T08:28:58;10.10;;;4.68;;
59880;SDS011;45751;51.380;10.326;2022-09-29T08:31:34;13.65;;;6.53;;
59880;SDS011;45751;51.380;10.326;2022-09-29T08:34:03;14.45;;;5.60;;
59880;SDS011;45751;51.380;10.326;2022-09-29T08:36:30;33.42;;;16.45;;
59880;SDS011;45751;51.380;10.326;2022-09-29T08:38:57;31.35;;;14.98;;
59880;SDS011;45751;51.380;10.326;2022-09-29T08:41:27;21.77;;;9.43;;
59880;SDS011;45751;51.380;10.326;2022-09-29T08:44:17;16.13;;;8.00;;
59880;SDS011;45751;51.380;10.326;2022-09-29T08:47:25;16.77;;;7.25;;
59880;SDS011;45751;51.380;10.326;2022-09-29T08:50:16;12.77;;;6.47;;
59880;SDS011;45751;51.380;10.326;2022-09-29T08:53:04;13.18;;;5.95;;
59880;SDS011;45751;51.380;10.326;2022-09-29T08:55:56;15.10;;;5.85;;
59880;SDS011;45751;51.380;10.326;2022-09-29T08:58:28;17.50;;;6.68;;
59880;SDS011;45751;51.380;10.326;2022-09-29T09:06:35;15.38;;;7.13;;
59880;SDS011;45751;51.380;10.326;2022-09-29T09:15:04;13.55;;;6.03;;
59880;SDS011;45751;51.380;10.326;2022-09-29T09:20:40;12.23;;;4.65;;
59880;SDS011;45751;51.380;10.326;2022-09-29T09:23:22;13.32;;;6.28;;
59880;SDS011;45751;51.380;10.326;2022-09-29T09:25:56;16.10;;;6.82;;
59880;SDS011;45751;51.380;10.326;2022-09-29T09:28:38;12.07;;;5.82;;
59880;SDS011;45751;51.380;10.326;2022-09-29T09:33:52;17.50;;;8.18;;
59880;SDS011;45751;51.380;10.326;2022-09-29T09:36:34;20.58;;;9.32;;
59880;SDS011;45751;51.380;10.326;2022-09-29T09:41:36;10.52;;;5.15;;
59880;SDS011;45751;51.380;10.326;2022-09-29T09:44:08;14.55;;;5.00;;
59880;SDS011;45751;51.380;10.326;2022-09-29T09:46:52;11.38;;;5.32;;
59880;SDS011;45751;51.380;10.326;2022-09-29T09:52:13;11.38;;;4.78;;
59880;SDS011;45751;51.380;10.326;2022-09-29T09:54:50;16.08;;;4.80;;
59880;SDS011;45751;51.380;10.326;2022-09-29T10:02:47;13.80;;;6.38;;
59880;SDS011;45751;51.380;10.326;2022-09-29T10:05:29;11.95;;;4.90;;
59880;SDS011;45751;51.380;10.326;2022-09-29T10:08:02;10.88;;;4.72;;
59880;SDS011;45751;51.380;10.326;2022-09-29T10:10:30;10.90;;;4.32;;
59880;SDS011;45751;51.380;10.326;2022-09-29T10:13:02;12.50;;;4.10;;
59880;SDS011;45751;51.380;10.326;2022-09-29T10:15:42;11.50;;;4.57;;
59880;SDS011;45751;51.380;10.326;2022-09-29T10:18:39;10.43;;;4.85;;
59880;SDS011;45751;51.380;10.326;2022-09-29T10:26:54;13.48;;;4.78;;
59880;SDS011;45751;51.380;10.326;2022-09-29T10:29:27;12.85;;;5.38;;
59880;SDS011;45751;51.380;10.326;2022-09-29T10:34:45;13.38;;;5.65;;
59880;SDS011;45751;51.380;10.326;2022-09-29T10:42:34;11.57;;;4.55;;
59880;SDS011;45751;51.380;10.326;2022-09-29T10:47:33;12.35;;;5.00;;
59880;SDS011;45751;51.380;10.326;2022-09-29T10:50:06;9.73;;;4.57;;
59880;SDS011;45751;51.380;10.326;2022-09-29T10:52:41;11.63;;;5.40;;
59880;SDS011;45751;51.380;10.326;2022-09-29T10:55:17;12.23;;;4.88;;
59880;SDS011;45751;51.380;10.326;2022-09-29T10:57:49;12.15;;;4.93;;
59880;SDS011;45751;51.380;10.326;2022-09-29T11:02:52;10.68;;;4.28;;
59880;SDS011;45751;51.380;10.326;2022-09-29T11:05:24;10.45;;;4.25;;
59880;SDS011;45751;51.380;10.326;2022-09-29T11:07:51;11.00;;;4.47;;
59880;SDS011;45751;51.380;10.326;2022-09-29T11:10:26;11.15;;;4.72;;
59880;SDS011;45751;51.380;10.326;2022-09-29T11:12:54;10.20;;;4.90;;
59880;SDS011;45751;51.380;10.326;2022-09-29T11:15:26;11.70;;;4.15;;
59880;SDS011;45751;51.380;10.326;2022-09-29T11:17:55;8.90;;;4.40;;
59880;SDS011;45751;51.380;10.326;2022-09-29T11:20:24;10.63;;;3.83;;
59880;SDS011;45751;51.380;10.326;2022-09-29T11:23:07;10.02;;;4.10;;
59880;SDS011;45751;51.380;10.326;2022-09-29T11:37:00;8.30;;;3.08;;
59880;SDS011;45751;51.380;10.326;2022-09-29T11:39:52;8.90;;;3.28;;
59880;SDS011;45751;51.380;10.326;2022-09-29T11:45:13;9.15;;;2.45;;
59880;SDS011;45751;51.380;10.326;2022-09-29T11:59:05;9.90;;;3.33;;
59880;SDS011;45751;51.380;10.326;2022-09-29T12:17:46;8.13;;;2.60;;
59880;SDS011;45751;51.380;10.326;2022-09-29T12:20:25;5.75;;;1.95;;
59880;SDS011;45751;51.380;10.326;2022-09-29T12:22:55;6.68;;;2.60;;
59880;SDS011;45751;51.380;10.326;2022-09-29T12:25:32;7.68;;;2.58;;
59880;SDS011;45751;51.380;10.326;2022-09-29T12:30:40;5.65;;;1.80;;
59880;SDS011;45751;51.380;10.326;2022-09-29T12:33:25;8.98;;;2.13;;
59880;SDS011;45751;51.380;10.326;2022-09-29T12:39:26;9.50;;;3.58;;
59880;SDS011;45751;51.380;10.326;2022-09-29T12:43:07;4.90;;;1.70;;
59880;SDS011;45751;51.380;10.326;2022-09-29T12:45:25;6.95;;;1.95;;
59880;SDS011;45751;51.380;10.326;2022-09-29T12:48:12;5.60;;;1.67;;
59880;SDS011;45751;51.380;10.326;2022-09-29T12:53:50;5.22;;;1.58;;
59880;SDS011;45751;51.380;10.326;2022-09-29T12:56:42;5.35;;;1.52;;
59880;SDS011;45751;51.380;10.326;2022-09-29T12:59:31;6.03;;;1.83;;
59880;SDS011;45751;51.380;10.326;2022-09-29T13:02:25;5.60;;;1.63;;
59880;SDS011;45751;51.380;10.326;2022-09-29T13:05:23;4.93;;;1.33;;
59880;SDS011;45751;51.380;10.326;2022-09-29T13:29:48;8.20;;;3.10;;
59880;SDS011;45751;51.380;10.326;2022-09-29T13:32:19;10.30;;;3.63;;
59880;SDS011;45751;51.380;10.326;2022-09-29T13:34:47;8.23;;;3.55;;
59880;SDS011;45751;51.380;10.326;2022-09-29T13:37:20;9.52;;;4.25;;
59880;SDS011;45751;51.380;10.326;2022-09-29T13:39:56;10.07;;;3.92;;
59880;SDS011;45751;51.380;10.326;2022-09-29T13:42:38;9.70;;;3.55;;
59880;SDS011;45751;51.380;10.326;2022-09-29T13:45:14;7.65;;;3.08;;
59880;SDS011;45751;51.380;10.326;2022-09-29T13:47:57;7.50;;;2.53;;
59880;SDS011;45751;51.380;10.326;2022-09-29T13:50:41;7.13;;;2.25;;
59880;SDS011;45751;51.380;10.326;2022-09-29T13:55:51;7.22;;;2.70;;
59880;SDS011;45751;51.380;10.326;2022-09-29T14:01:21;8.23;;;2.78;;
59880;SDS011;45751;51.380;10.326;2022-09-29T14:07:04;6.20;;;2.25;;
59880;SDS011;45751;51.380;10.326;2022-09-29T14:09:32;6.97;;;2.35;;
59880;SDS011;45751;51.380;10.326;2022-09-29T14:12:16;6.93;;;2.92;;
59880;SDS011;45751;51.380;10.326;2022-09-29T14:14:51;9.00;;;2.38;;
59880;SDS011;45751;51.380;10.326;2022-09-29T14:17:36;6.65;;;2.28;;
59880;SDS011;45751;51.380;10.326;2022-09-29T14:22:54;7.25;;;2.60;;
59880;SDS011;45751;51.380;10.326;2022-09-29T14:28:08;7.72;;;2.72;;
59880;SDS011;45751;51.380;10.326;2022-09-29T14:33:24;6.90;;;2.53;;
59880;SDS011;45751;51.380;10.326;2022-09-29T14:38:32;7.05;;;2.13;;
59880;SDS011;45751;51.380;10.326;2022-09-29T14:49:31;6.50;;;2.15;;
59880;SDS011;45751;51.380;10.326;2022-09-29T14:52:42;7.35;;;2.25;;
59880;SDS011;45751;51.380;10.326;2022-09-29T15:03:51;5.78;;;1.77;;
59880;SDS011;45751;51.380;10.326;2022-09-29T15:06:20;6.10;;;2.30;;
59880;SDS011;45751;51.380;10.326;2022-09-29T15:08:57;7.15;;;1.85;;
59880;SDS011;45751;51.380;10.326;2022-09-29T15:11:36;6.15;;;1.77;;
59880;SDS011;45751;51.380;10.326;2022-09-29T15:14:24;6.47;;;2.13;;
59880;SDS011;45751;51.380;10.326;2022-09-29T15:16:55;6.47;;;2.10;;
59880;SDS011;45751;51.380;10.326;2022-09-29T15:19:41;6.07;;;1.90;;
59880;SDS011;45751;51.380;10.326;2022-09-29T15:24:59;7.47;;;1.90;;
59880;SDS011;45751;51.380;10.326;2022-09-29T15:27:36;5.97;;;1.77;;
59880;SDS011;45751;51.380;10.326;2022-09-29T15:30:06;5.78;;;1.73;;
59880;SDS011;45751;51.380;10.326;2022-09-29T15:32:43;7.07;;;2.08;;
59880;SDS011;45751;51.380;10.326;2022-09-29T15:35:12;7.07;;;2.60;;
59880;SDS011;45751;51.380;10.326;2022-09-29T15:40:14;6.38;;;2.28;;
59880;SDS011;45751;51.380;10.326;2022-09-29T15:42:42;8.55;;;2.58;;
59880;SDS011;45751;51.380;10.326;2022-09-29T15:45:16;7.18;;;2.22;;
59880;SDS011;45751;51.380;10.326;2022-09-29T15:47:59;7.30;;;2.63;;
59880;SDS011;45751;51.380;10.326;2022-09-29T15:50:29;5.82;;;2.05;;
59880;SDS011;45751;51.380;10.326;2022-09-29T15:52:58;8.38;;;2.25;;
59880;SDS011;45751;51.380;10.326;2022-09-29T15:55:31;11.05;;;2.00;;
59880;SDS011;45751;51.380;10.326;2022-09-29T15:57:58;8.82;;;2.17;;
59880;SDS011;45751;51.380;10.326;2022-09-29T16:03:05;6.40;;;2.10;;
59880;SDS011;45751;51.380;10.326;2022-09-29T16:05:35;6.05;;;1.77;;
59880;SDS011;45751;51.380;10.326;2022-09-29T16:08:29;6.00;;;1.95;;
59880;SDS011;45751;51.380;10.326;2022-09-29T16:11:02;6.40;;;1.90;;
59880;SDS011;45751;51.380;10.326;2022-09-29T16:13:35;6.00;;;2.00;;
59880;SDS011;45751;51.380;10.326;2022-09-29T16:16:07;6.65;;;2.03;;
59880;SDS011;45751;51.380;10.326;2022-09-29T16:18:43;5.88;;;1.85;;
59880;SDS011;45751;51.380;10.326;2022-09-29T16:21:18;7.57;;;2.28;;
59880;SDS011;45751;51.380;10.326;2022-09-29T16:23:48;6.97;;;2.00;;
59880;SDS011;45751;51.380;10.326;2022-09-29T16:31:52;6.82;;;1.98;;
59880;SDS011;45751;51.380;10.326;2022-09-29T16:36:48;7.38;;;2.40;;
59880;SDS011;45751;51.380;10.326;2022-09-29T16:39:19;5.55;;;1.83;;
59880;SDS011;45751;51.380;10.326;2022-09-29T16:41:48;10.60;;;5.43;;
59880;SDS011;45751;51.380;10.326;2022-09-29T16:44:18;18.80;;;9.73;;
59880;SDS011;45751;51.380;10.326;2022-09-29T16:47:19;37.08;;;19.05;;
59880;SDS011;45751;51.380;10.326;2022-09-29T16:49:53;18.73;;;7.63;;
59880;SDS011;45751;51.380;10.326;2022-09-29T16:52:23;9.05;;;3.47;;
59880;SDS011;45751;51.380;10.326;2022-09-29T16:55:05;6.53;;;2.20;;
59880;SDS011;45751;51.380;10.326;2022-09-29T16:57:52;6.43;;;2.40;;
59880;SDS011;45751;51.380;10.326;2022-09-29T17:00:35;6.90;;;1.88;;
59880;SDS011;45751;51.380;10.326;2022-09-29T17:03:02;5.20;;;1.67;;
59880;SDS011;45751;51.380;10.326;2022-09-29T17:05:34;5.70;;;1.50;;
59880;SDS011;45751;51.380;10.326;2022-09-29T17:08:05;7.20;;;1.90;;
59880;SDS011;45751;51.380;10.326;2022-09-29T17:10:53;5.72;;;1.90;;
59880;SDS011;45751;51.380;10.326;2022-09-29T17:13:22;5.72;;;1.80;;
59880;SDS011;45751;51.380;10.326;2022-09-29T17:15:50;6.20;;;1.70;;
59880;SDS011;45751;51.380;10.326;2022-09-29T17:18:18;5.90;;;1.90;;
59880;SDS011;45751;51.380;10.326;2022-09-29T17:20:47;7.80;;;2.20;;
59880;SDS011;45751;51.380;10.326;2022-09-29T17:23:14;5.75;;;1.90;;
59880;SDS011;45751;51.380;10.326;2022-09-29T17:25:42;8.13;;;2.28;;
59880;SDS011;45751;51.380;10.326;2022-09-29T17:30:48;6.20;;;2.05;;
59880;SDS011;45751;51.380;10.326;2022-09-29T17:33:17;12.07;;;2.58;;
59880;SDS011;45751;51.380;10.326;2022-09-29T17:35:45;7.55;;;1.90;;
59880;SDS011;45751;51.380;10.326;2022-09-29T17:38:20;6.43;;;1.75;;
59880;SDS011;45751;51.380;10.326;2022-09-29T17:43:27;7.90;;;2.00;;
59880;SDS011;45751;51.380;10.326;2022-09-29T17:45:57;7.95;;;1.92;;
59880;SDS011;45751;51.380;10.326;2022-09-29T17:48:25;9.63;;;2.00;;
59880;SDS011;45751;51.380;10.326;2022-09-29T17:50:53;6.25;;;1.88;;
59880;SDS011;45751;51.380;10.326;2022-09-29T17:53:22;6.13;;;2.05;;
59880;SDS011;45751;51.380;10.326;2022-09-29T17:55:51;7.40;;;2.10;;
59880;SDS011;45751;51.380;10.326;2022-09-29T17:58:19;5.65;;;1.70;;
59880;SDS011;45751;51.380;10.326;2022-09-29T18:00:49;8.77;;;2.33;;
59880;SDS011;45751;51.380;10.326;2022-09-29T18:03:18;6.82;;;2.00;;
59880;SDS011;45751;51.380;10.326;2022-09-29T18:05:47;5.88;;;1.65;;
59880;SDS011;45751;51.380;10.326;2022-09-29T18:08:21;7.18;;;1.88;;
59880;SDS011;45751;51.380;10.326;2022-09-29T18:10:50;7.03;;;1.80;;
59880;SDS011;45751;51.380;10.326;2022-09-29T18:13:19;5.68;;;1.60;;
59880;SDS011;45751;51.380;10.326;2022-09-29T18:15:47;5.90;;;1.98;;
59880;SDS011;45751;51.380;10.326;2022-09-29T18:18:16;10.30;;;2.10;;
59880;SDS011;45751;51.380;10.326;2022-09-29T18:20:46;6.30;;;2.13;;
59880;SDS011;45751;51.380;10.326;2022-09-29T18:23:15;5.72;;;1.83;;
59880;SDS011;45751;51.380;10.326;2022-09-29T18:25:44;6.13;;;2.20;;
59880;SDS011;45751;51.380;10.326;2022-09-29T18:28:14;6.63;;;2.10;;
59880;SDS011;45751;51.380;10.326;2022-09-29T18:30:45;6.28;;;1.95;;